Alanson, Michigan
Current Conditions -  °F | °C
As of 6:15 PM on Tuesday 25 Nov 2014 (Local Time) from KMGN Reporting Station
Overcast Overcast  
Wind Chill: -2°   Ceiling: 3400
Heat Index: -2°   Visibility: 10mi
Dew Point: -5°   Wind: 3mph
Humidity: 81%   Direction: 310°NW
Pressure: 30.04"   Gusts: NA
Location:  45.44°N, 84.79°W
Report Text: KMGN 252315Z AUTO 31003KT 10SM OVC034 M02/M05 A3004 RMK AO2 T10221050
Loading
Personal Weather Stations






























Interactive Weather Map New forecast layout! Learn more

10-Day Weather Forecast

Advertisements
Track Severe Weather on mobile